createdAt,value
2023-05-21T00:02:19.861Z,101947.00
2023-05-21T00:04:46.522Z,101937.47
2023-05-21T00:07:13.401Z,101930.63
2023-05-21T00:09:39.904Z,101937.50
2023-05-21T00:12:09.721Z,101930.50
2023-05-21T00:14:36.542Z,101930.00
2023-05-21T00:17:03.000Z,101921.47
2023-05-21T00:19:29.634Z,101917.97
2023-05-21T00:21:57.581Z,101915.50
2023-05-21T00:24:24.027Z,101920.06
2023-05-21T00:26:50.495Z,101925.16
2023-05-21T00:29:16.976Z,101910.78
2023-05-21T00:31:43.443Z,101912.84
2023-05-21T00:34:09.889Z,101916.78
2023-05-21T00:36:36.316Z,101904.72
2023-05-21T00:39:04.265Z,101912.25
2023-05-21T00:41:30.694Z,101913.16
2023-05-21T00:43:57.230Z,101901.44
2023-05-21T00:46:24.013Z,101908.34
2023-05-21T00:48:50.970Z,101903.56
2023-05-21T00:51:18.471Z,101901.84
2023-05-21T00:53:46.631Z,101899.78
2023-05-21T00:56:13.286Z,101902.66
2023-05-21T00:58:40.607Z,101895.69
2023-05-21T01:01:07.254Z,101895.38
2023-05-21T01:03:38.524Z,101891.97
2023-05-21T01:06:06.106Z,101896.25
2023-05-21T01:08:34.519Z,101893.56
2023-05-21T01:11:02.584Z,101881.28
2023-05-21T01:13:29.593Z,101883.69
2023-05-21T01:15:58.032Z,101877.34
2023-05-21T01:18:24.544Z,101880.53
2023-05-21T01:20:52.397Z,101889.72
2023-05-21T01:23:19.845Z,101881.25
2023-05-21T01:25:47.069Z,101878.25
2023-05-21T01:28:13.933Z,101881.59
2023-05-21T01:30:41.367Z,101877.94
2023-05-21T01:33:15.597Z,101877.22
2023-05-21T01:36:10.154Z,101878.56
2023-05-21T01:38:43.081Z,101873.09
2023-05-21T01:41:13.792Z,101871.19
2023-05-21T01:43:42.535Z,101869.38
2023-05-21T01:46:10.816Z,101873.31
2023-05-21T01:48:37.977Z,101869.88
2023-05-21T01:51:06.071Z,101859.94
2023-05-21T01:53:32.552Z,101864.31
2023-05-21T01:55:59.343Z,101854.09
2023-05-21T01:58:26.021Z,101849.84
2023-05-21T02:00:52.445Z,101856.16
2023-05-21T02:03:20.123Z,101849.06
2023-05-21T02:05:47.213Z,101864.75
2023-05-21T02:08:15.029Z,101860.97
2023-05-21T02:10:41.471Z,101853.31
2023-05-21T02:13:08.019Z,101850.75
2023-05-21T02:15:34.798Z,101851.22
2023-05-21T02:18:01.669Z,101855.13
2023-05-21T02:20:28.156Z,101854.50
2023-05-21T02:22:54.598Z,101844.03
2023-05-21T02:25:21.051Z,101850.94
2023-05-21T02:27:47.615Z,101851.38
2023-05-21T02:30:15.531Z,101847.22
2023-05-21T02:32:43.164Z,101848.78
2023-05-21T02:35:13.152Z,101852.69
2023-05-21T02:37:40.492Z,101841.44
2023-05-21T02:40:08.012Z,101846.72
2023-05-21T02:42:36.496Z,101845.97
2023-05-21T02:45:02.985Z,101839.19
2023-05-21T02:47:29.411Z,101846.38
2023-05-21T02:50:01.480Z,101846.00
2023-05-21T02:52:28.090Z,101841.59
2023-05-21T02:54:54.561Z,101841.44
2023-05-21T02:57:21.009Z,101846.72
2023-05-21T02:59:47.441Z,101848.81
2023-05-21T03:02:13.937Z,101850.72
2023-05-21T03:04:46.337Z,101852.41
2023-05-21T03:07:14.325Z,101847.31
2023-05-21T03:09:44.349Z,101838.81
2023-05-21T03:12:11.113Z,101835.53
2023-05-21T03:14:37.776Z,101833.91
2023-05-21T03:17:07.197Z,101832.28
2023-05-21T03:19:37.301Z,101822.59
2023-05-21T03:22:04.150Z,101813.50
2023-05-21T03:24:30.806Z,101821.47
2023-05-21T03:26:57.551Z,101819.63
2023-05-21T03:29:23.992Z,101825.06
2023-05-21T03:31:52.560Z,101827.47
2023-05-21T03:34:20.060Z,101831.06
2023-05-21T03:36:47.253Z,101824.03
2023-05-21T03:39:13.826Z,101823.84
2023-05-21T03:41:40.677Z,101817.78
2023-05-21T03:44:07.134Z,101817.13
2023-05-21T03:46:33.803Z,101817.53
2023-05-21T03:49:00.582Z,101822.22
2023-05-21T03:51:27.525Z,101824.78
2023-05-21T03:53:53.995Z,101821.63
2023-05-21T03:56:21.545Z,101817.84
2023-05-21T03:58:48.085Z,101826.97
2023-05-21T04:01:14.606Z,101815.13
2023-05-21T04:03:41.305Z,101816.94
2023-05-21T04:06:10.042Z,101822.88
2023-05-21T04:08:37.980Z,101825.38
2023-05-21T04:11:04.472Z,101817.78
2023-05-21T04:13:30.900Z,101824.72
2023-05-21T04:15:57.366Z,101826.56
2023-05-21T04:18:25.922Z,101828.06
2023-05-21T04:20:52.869Z,101836.03
2023-05-21T04:23:19.367Z,101830.34
2023-05-21T04:25:50.511Z,101829.06
2023-05-21T04:28:20.091Z,101825.00
2023-05-21T04:30:47.325Z,101819.72
2023-05-21T04:33:17.944Z,101825.81
2023-05-21T04:35:47.217Z,101820.16
2023-05-21T04:38:14.165Z,101822.34
2023-05-21T04:40:40.704Z,101822.31
2023-05-21T04:43:08.062Z,101825.59
2023-05-21T04:45:34.590Z,101836.03
2023-05-21T04:48:01.207Z,101820.22
2023-05-21T04:50:30.845Z,101829.25
2023-05-21T04:52:58.686Z,101829.56
2023-05-21T04:55:25.846Z,101825.66
2023-05-21T04:57:52.770Z,101820.72
2023-05-21T05:00:19.929Z,101812.00
2023-05-21T05:02:46.729Z,101815.56
2023-05-21T05:05:13.228Z,101808.84
2023-05-21T05:07:39.636Z,101806.13
2023-05-21T05:10:06.548Z,101807.34
2023-05-21T05:12:32.962Z,101818.59
2023-05-21T05:14:59.410Z,101805.69
2023-05-21T05:17:26.035Z,101804.16
2023-05-21T05:19:53.154Z,101807.31
2023-05-21T05:22:19.611Z,101810.31
2023-05-21T05:24:46.094Z,101808.78
2023-05-21T05:27:12.547Z,101805.31
2023-05-21T05:29:38.970Z,101812.38
2023-05-21T05:32:05.812Z,101815.91
2023-05-21T05:34:32.377Z,101799.44
2023-05-21T05:36:58.867Z,101806.13
2023-05-21T05:39:25.540Z,101810.22
2023-05-21T05:41:52.001Z,101808.63
2023-05-21T05:44:18.519Z,101799.06
2023-05-21T05:46:45.145Z,101797.66
2023-05-21T05:49:11.691Z,101790.19
2023-05-21T05:51:38.123Z,101795.53
2023-05-21T05:54:04.646Z,101794.09
2023-05-21T05:56:31.073Z,101790.72
2023-05-21T05:58:59.176Z,101789.72
2023-05-21T06:01:26.216Z,101799.22
2023-05-21T06:03:53.324Z,101795.28
2023-05-21T06:06:19.945Z,101788.34
2023-05-21T06:08:46.512Z,101794.66
2023-05-21T06:11:13.073Z,101798.28
2023-05-21T06:13:39.634Z,101802.75
2023-05-21T06:16:06.408Z,101794.47
2023-05-21T06:18:32.884Z,101790.25
2023-05-21T06:20:59.295Z,101790.94
2023-05-21T06:23:25.762Z,101790.94
2023-05-21T06:25:52.193Z,101791.03
2023-05-21T06:28:18.676Z,101787.47
2023-05-21T06:30:45.210Z,101787.09
2023-05-21T06:33:12.789Z,101795.00
2023-05-21T06:35:40.190Z,101792.09
2023-05-21T06:38:06.625Z,101796.66
2023-05-21T06:40:34.158Z,101795.84
2023-05-21T06:43:01.124Z,101804.97
2023-05-21T06:45:27.540Z,101796.44
2023-05-21T06:47:53.976Z,101792.91
2023-05-21T06:50:20.506Z,101792.97
2023-05-21T06:52:46.949Z,101785.44
2023-05-21T06:55:13.378Z,101787.94
2023-05-21T06:57:39.817Z,101786.84
2023-05-21T07:00:08.398Z,101784.81
2023-05-21T07:02:34.978Z,101790.13
2023-05-21T07:05:01.493Z,101786.88
2023-05-21T07:07:28.152Z,101789.50
2023-05-21T07:09:54.625Z,101784.63
2023-05-21T07:12:21.019Z,101777.00
2023-05-21T07:14:47.527Z,101782.22
2023-05-21T07:17:13.999Z,101775.53
2023-05-21T07:19:40.500Z,101770.22
2023-05-21T07:22:07.243Z,101778.72
2023-05-21T07:24:33.697Z,101766.47
2023-05-21T07:27:00.289Z,101773.28
2023-05-21T07:29:27.329Z,101776.81
2023-05-21T07:31:53.724Z,101767.13
2023-05-21T07:34:20.262Z,101770.25
2023-05-21T07:36:46.714Z,101770.50
2023-05-21T07:39:13.188Z,101767.56
2023-05-21T07:41:39.664Z,101770.91
2023-05-21T07:44:06.198Z,101768.63
2023-05-21T07:46:32.651Z,101777.84
2023-05-21T07:48:59.128Z,101774.56
2023-05-21T07:51:26.260Z,101776.25
2023-05-21T07:53:55.010Z,101777.44
2023-05-21T07:56:21.732Z,101768.25
2023-05-21T07:58:48.409Z,101765.25
2023-05-21T08:01:14.889Z,101764.25
2023-05-21T08:03:41.515Z,101763.56
2023-05-21T08:06:08.065Z,101762.63
2023-05-21T08:08:34.507Z,101757.41
2023-05-21T08:11:01.840Z,101757.44
2023-05-21T08:13:28.297Z,101758.06
2023-05-21T08:15:54.909Z,101758.28
2023-05-21T08:18:23.719Z,101760.06
2023-05-21T08:20:50.469Z,101767.81
2023-05-21T08:23:16.933Z,101756.00
2023-05-21T08:25:43.364Z,101762.78
2023-05-21T08:28:09.773Z,101765.41
2023-05-21T08:30:36.202Z,101764.72
2023-05-21T08:33:02.717Z,101764.13
2023-05-21T08:35:29.236Z,101764.41
2023-05-21T08:37:55.649Z,101767.53
2023-05-21T08:40:22.171Z,101766.00
2023-05-21T08:42:49.718Z,101766.81
2023-05-21T08:45:23.633Z,101761.28
2023-05-21T08:47:57.418Z,101769.03
2023-05-21T08:50:26.817Z,101764.84
2023-05-21T08:52:55.217Z,101754.16
2023-05-21T08:55:23.437Z,101761.63
2023-05-21T08:57:50.606Z,101753.69
2023-05-21T09:00:17.303Z,101762.69
2023-05-21T09:02:44.611Z,101762.34
2023-05-21T09:05:12.220Z,101756.94
2023-05-21T09:07:44.568Z,101753.81
2023-05-21T09:10:13.115Z,101751.44
2023-05-21T09:12:40.106Z,101745.31
2023-05-21T09:15:07.519Z,101752.94
2023-05-21T09:17:34.022Z,101740.69
2023-05-21T09:20:14.556Z,101751.31
2023-05-21T09:22:42.873Z,101749.22
2023-05-21T09:25:11.226Z,101760.81
2023-05-21T09:27:38.570Z,101752.00
2023-05-21T09:30:09.607Z,101750.25
2023-05-21T09:32:36.142Z,101746.53
2023-05-21T09:35:13.341Z,101740.78
2023-05-21T09:37:47.831Z,101747.47
2023-05-21T09:40:15.184Z,101754.34
2023-05-21T09:42:54.655Z,101747.72
2023-05-21T09:45:22.347Z,101745.19
2023-05-21T09:47:49.876Z,101754.03
2023-05-21T09:50:22.985Z,101746.91
2023-05-21T09:52:52.700Z,101748.09
2023-05-21T09:55:22.959Z,101735.31
2023-05-21T09:57:50.700Z,101741.25
2023-05-21T10:00:24.600Z,101740.13
2023-05-21T10:02:55.823Z,101732.97
2023-05-21T10:05:26.361Z,101731.78
2023-05-21T10:07:54.377Z,101722.78
2023-05-21T10:10:22.615Z,101732.13
2023-05-21T10:12:55.308Z,101724.78
2023-05-21T10:15:24.173Z,101730.03
2023-05-21T10:17:52.277Z,101719.06
2023-05-21T10:20:18.916Z,101724.56
2023-05-21T10:22:45.669Z,101726.16
2023-05-21T10:25:13.171Z,101719.09
2023-05-21T10:27:39.968Z,101711.88
2023-05-21T10:30:06.890Z,101711.38
2023-05-21T10:32:33.977Z,101709.69
2023-05-21T10:35:02.258Z,101708.41
2023-05-21T10:37:29.133Z,101704.38
2023-05-21T10:39:56.516Z,101709.75
2023-05-21T10:43:00.360Z,101705.91
2023-05-21T10:45:54.095Z,101703.22
2023-05-21T10:48:44.760Z,101706.16
2023-05-21T10:51:24.247Z,101703.59
2023-05-21T10:54:28.539Z,101704.81
2023-05-21T10:57:13.438Z,101700.34
2023-05-21T10:59:39.800Z,101710.00
2023-05-21T11:02:07.029Z,101698.13
2023-05-21T11:04:34.964Z,101700.22
2023-05-21T11:07:02.044Z,101699.28
2023-05-21T11:09:28.509Z,101700.16
2023-05-21T11:11:59.030Z,101700.84
2023-05-21T11:14:26.734Z,101696.19
2023-05-21T11:16:53.243Z,101695.59
2023-05-21T11:19:19.754Z,101703.97
2023-05-21T11:21:54.011Z,101697.91
2023-05-21T11:24:20.568Z,101683.34
2023-05-21T11:27:01.536Z,101689.53
2023-05-21T11:29:40.251Z,101688.50
2023-05-21T11:32:10.999Z,101680.19
2023-05-21T11:34:46.019Z,101688.78
2023-05-21T11:37:18.772Z,101677.00
2023-05-21T11:39:45.580Z,101671.38
2023-05-21T11:42:12.196Z,101674.81
2023-05-21T11:44:42.705Z,101676.13
2023-05-21T11:47:10.752Z,101664.75
2023-05-21T11:49:37.916Z,101668.84
2023-05-21T11:52:08.651Z,101665.94
2023-05-21T11:54:44.048Z,101662.72
2023-05-21T11:57:10.552Z,101662.41
2023-05-21T11:59:37.072Z,101667.06
2023-05-21T12:02:04.001Z,101662.25
2023-05-21T12:04:31.356Z,101665.44
2023-05-21T12:06:58.548Z,101664.78
2023-05-21T12:09:25.102Z,101657.09
2023-05-21T12:11:51.741Z,101663.06
2023-05-21T12:14:18.240Z,101642.66
2023-05-21T12:16:44.850Z,101650.28
2023-05-21T12:19:11.440Z,101646.84
2023-05-21T12:21:38.049Z,101653.00
2023-05-21T12:24:04.715Z,101643.59
2023-05-21T12:26:33.173Z,101654.28
2023-05-21T12:28:59.751Z,101647.81
2023-05-21T12:31:27.566Z,101646.69
2023-05-21T12:33:54.161Z,101654.50
2023-05-21T12:36:29.292Z,101653.03
2023-05-21T12:38:56.384Z,101639.03
2023-05-21T12:41:23.102Z,101645.28
2023-05-21T12:43:50.812Z,101639.59
2023-05-21T12:46:18.825Z,101643.88
2023-05-21T12:48:57.392Z,101638.00
2023-05-21T12:51:23.824Z,101641.38
2023-05-21T12:53:50.248Z,101628.09
2023-05-21T12:56:16.666Z,101629.31
2023-05-21T12:58:43.496Z,101630.31
2023-05-21T13:01:11.158Z,101624.13
2023-05-21T13:03:38.445Z,101623.63
2023-05-21T13:06:08.946Z,101620.47
2023-05-21T13:08:35.467Z,101615.53
2023-05-21T13:11:05.388Z,101609.16
2023-05-21T13:13:31.969Z,101612.69
2023-05-21T13:16:00.575Z,101608.63
2023-05-21T13:18:27.249Z,101609.81
2023-05-21T13:20:53.794Z,101609.09
2023-05-21T13:23:20.487Z,101613.81
2023-05-21T13:25:46.906Z,101607.94
2023-05-21T13:28:15.305Z,101603.19
2023-05-21T13:30:41.801Z,101600.00
2023-05-21T13:33:08.387Z,101612.94
2023-05-21T13:35:35.269Z,101599.16
2023-05-21T13:38:02.059Z,101606.00
2023-05-21T13:40:28.781Z,101603.28
2023-05-21T13:42:55.251Z,101602.88
2023-05-21T13:45:21.718Z,101596.97
2023-05-21T13:47:48.736Z,101593.78
2023-05-21T13:50:15.531Z,101597.13
2023-05-21T13:52:42.174Z,101600.00
2023-05-21T13:55:09.412Z,101599.31
2023-05-21T13:57:36.006Z,101600.41
2023-05-21T14:00:03.595Z,101589.41
2023-05-21T14:02:30.252Z,101589.34
2023-05-21T14:04:57.278Z,101589.25
2023-05-21T14:07:23.707Z,101592.47
2023-05-21T14:09:50.403Z,101589.25
2023-05-21T14:12:17.099Z,101593.84
2023-05-21T14:14:43.674Z,101592.00
2023-05-21T14:17:10.283Z,101587.25
2023-05-21T14:19:36.741Z,101592.28
2023-05-21T14:22:03.120Z,101590.03
2023-05-21T14:24:29.566Z,101582.00
2023-05-21T14:26:55.989Z,101583.06
2023-05-21T14:29:22.457Z,101568.78
2023-05-21T14:31:49.015Z,101576.47
2023-05-21T14:34:15.544Z,101570.19
2023-05-21T14:36:42.021Z,101566.97
2023-05-21T14:39:08.502Z,101575.69
2023-05-21T14:41:38.692Z,101567.09
2023-05-21T14:44:05.557Z,101577.84
2023-05-21T14:46:32.543Z,101578.09
2023-05-21T14:49:00.156Z,101588.59
2023-05-21T14:51:26.641Z,101576.56
2023-05-21T14:53:53.157Z,101572.81
2023-05-21T14:56:22.226Z,101575.81
2023-05-21T14:58:48.605Z,101569.69
2023-05-21T15:01:15.028Z,101569.97
2023-05-21T15:03:41.630Z,101566.50
2023-05-21T15:06:08.176Z,101568.09
2023-05-21T15:08:34.528Z,101564.53
2023-05-21T15:11:00.894Z,101555.44
2023-05-21T15:13:27.235Z,101553.34
2023-05-21T15:15:53.670Z,101551.50
2023-05-21T15:18:20.045Z,101546.63
2023-05-21T15:20:46.438Z,101548.22
2023-05-21T15:23:17.272Z,101546.31
2023-05-21T15:25:44.645Z,101547.78
2023-05-21T15:28:12.233Z,101547.19
2023-05-21T15:30:38.967Z,101542.75
2023-05-21T15:33:05.442Z,101538.19
2023-05-21T15:35:32.050Z,101540.84
2023-05-21T15:37:58.603Z,101541.91
2023-05-21T15:40:26.863Z,101532.38
2023-05-21T15:42:53.946Z,101528.69
2023-05-21T15:45:20.641Z,101530.66
2023-05-21T15:47:47.252Z,101531.81
2023-05-21T15:50:13.845Z,101525.53
2023-05-21T15:52:41.845Z,101521.34
2023-05-21T15:55:08.782Z,101521.00
2023-05-21T15:57:35.327Z,101522.78
2023-05-21T16:00:01.926Z,101518.59
2023-05-21T16:02:31.334Z,101505.91
2023-05-21T16:04:57.862Z,101511.25
2023-05-21T16:07:47.697Z,101509.50
2023-05-21T16:10:19.831Z,101509.91
2023-05-21T16:12:50.323Z,101513.06
2023-05-21T16:15:16.877Z,101518.81
2023-05-21T16:17:43.417Z,101525.41
2023-05-21T16:20:10.409Z,101529.78
2023-05-21T16:22:36.937Z,101515.81
2023-05-21T16:27:50.830Z,101514.19
2023-05-21T16:30:17.549Z,101522.06
2023-05-21T16:32:53.083Z,101521.66
2023-05-21T16:35:19.602Z,101522.19
2023-05-21T16:37:46.270Z,101535.69
2023-05-21T16:40:18.512Z,101521.00
2023-05-21T16:42:45.054Z,101518.84
2023-05-21T16:45:19.468Z,101524.28
2023-05-21T16:47:52.555Z,101522.78
2023-05-21T16:50:22.248Z,101520.44
2023-05-21T16:52:48.747Z,101520.88
2023-05-21T16:55:15.228Z,101523.03
2023-05-21T16:57:41.697Z,101523.59
2023-05-21T17:00:08.687Z,101521.97
2023-05-21T17:02:43.150Z,101520.50
2023-05-21T17:05:09.682Z,101523.66
2023-05-21T17:07:36.148Z,101519.03
2023-05-21T17:10:03.010Z,101516.00
2023-05-21T17:12:29.541Z,101518.75
2023-05-21T17:14:56.014Z,101523.19
2023-05-21T17:17:22.573Z,101533.69
2023-05-21T17:19:49.012Z,101527.97
2023-05-21T17:22:19.251Z,101526.53
2023-05-21T17:24:49.467Z,101528.34
2023-05-21T17:27:16.472Z,101520.13
2023-05-21T17:29:42.975Z,101522.56
2023-05-21T17:32:10.343Z,101515.97
2023-05-21T17:34:37.335Z,101524.25
2023-05-21T17:37:03.888Z,101516.81
2023-05-21T17:39:30.657Z,101514.84
2023-05-21T17:41:57.425Z,101514.81
2023-05-21T17:44:24.071Z,101516.88
2023-05-21T17:46:51.165Z,101516.19
2023-05-21T17:49:18.372Z,101512.38
2023-05-21T17:51:44.952Z,101518.16
2023-05-21T17:54:11.748Z,101515.03
2023-05-21T17:56:41.088Z,101494.59
2023-05-21T17:59:11.672Z,101505.06
2023-05-21T18:01:39.654Z,101500.34
2023-05-21T18:04:12.238Z,101503.78
2023-05-21T18:06:39.641Z,101508.09
2023-05-21T18:09:08.002Z,101502.28
2023-05-21T18:11:34.713Z,101500.88
2023-05-21T18:14:01.318Z,101491.84
2023-05-21T18:16:30.405Z,101498.41
2023-05-21T18:18:57.275Z,101495.22
2023-05-21T18:21:23.861Z,101499.38
2023-05-21T18:23:50.303Z,101498.81
2023-05-21T18:26:16.747Z,101506.00
2023-05-21T18:28:43.202Z,101506.78
2023-05-21T18:31:09.633Z,101509.78
2023-05-21T18:33:36.278Z,101502.22
2023-05-21T18:36:02.934Z,101515.75
2023-05-21T18:38:29.495Z,101514.00
2023-05-21T18:40:56.097Z,101507.28
2023-05-21T18:43:22.826Z,101511.06
2023-05-21T18:45:49.291Z,101505.41
2023-05-21T18:48:16.126Z,101498.38
2023-05-21T18:50:42.608Z,101505.56
2023-05-21T18:53:10.453Z,101506.28
2023-05-21T18:55:36.880Z,101504.28
2023-05-21T18:58:03.348Z,101507.72
2023-05-21T19:00:29.898Z,101507.69
2023-05-21T19:02:56.527Z,101507.72
2023-05-21T19:05:23.235Z,101507.31
2023-05-21T19:07:49.685Z,101499.47
2023-05-21T19:10:16.195Z,101501.97
2023-05-21T19:12:43.528Z,101516.19
2023-05-21T19:15:10.618Z,101510.88
2023-05-21T19:17:39.025Z,101507.19
2023-05-21T19:20:10.018Z,101510.31
2023-05-21T19:22:37.200Z,101519.34
2023-05-21T19:25:04.299Z,101523.03
2023-05-21T19:27:30.971Z,101514.31
2023-05-21T19:29:57.446Z,101526.59
2023-05-21T19:32:23.992Z,101528.31
2023-05-21T19:34:51.573Z,101528.38
2023-05-21T19:37:18.239Z,101521.25
2023-05-21T19:39:49.440Z,101531.13
2023-05-21T19:42:17.307Z,101530.97
2023-05-21T19:44:44.084Z,101527.91
2023-05-21T19:47:10.699Z,101533.75
2023-05-21T19:49:37.206Z,101533.47
2023-05-21T19:52:04.603Z,101532.41
2023-05-21T19:54:31.183Z,101532.88
2023-05-21T19:56:57.710Z,101541.53
2023-05-21T19:59:24.196Z,101536.38
2023-05-21T20:01:51.752Z,101541.25
2023-05-21T20:04:18.393Z,101534.88
2023-05-21T20:06:45.009Z,101540.28
2023-05-21T20:09:13.272Z,101541.66
2023-05-21T20:11:39.879Z,101540.69
2023-05-21T20:14:06.407Z,101531.34
2023-05-21T20:16:33.374Z,101539.44
2023-05-21T20:19:01.658Z,101541.91
2023-05-21T20:21:29.570Z,101537.28
2023-05-21T20:23:56.074Z,101540.91
2023-05-21T20:26:23.236Z,101532.13
2023-05-21T20:28:49.766Z,101534.09
2023-05-21T20:31:16.278Z,101533.66
2023-05-21T20:33:43.054Z,101531.19
2023-05-21T20:36:09.580Z,101530.44
2023-05-21T20:38:37.997Z,101538.50
2023-05-21T20:41:04.669Z,101532.22
2023-05-21T20:43:31.310Z,101535.22
2023-05-21T20:45:59.916Z,101532.47
2023-05-21T20:48:29.468Z,101533.47
2023-05-21T20:50:57.465Z,101533.84
2023-05-21T20:53:24.753Z,101543.38
2023-05-21T20:55:52.609Z,101533.34
2023-05-21T20:58:19.091Z,101532.13
2023-05-21T21:00:48.394Z,101535.94
2023-05-21T21:03:17.703Z,101531.47
2023-05-21T21:05:44.604Z,101532.19
2023-05-21T21:08:11.080Z,101531.06
2023-05-21T21:10:38.559Z,101533.69
2023-05-21T21:13:07.123Z,101537.06
2023-05-21T21:15:34.093Z,101531.69
2023-05-21T21:18:00.750Z,101529.38
2023-05-21T21:20:27.543Z,101537.38
2023-05-21T21:22:54.061Z,101533.25
2023-05-21T21:25:21.071Z,101538.88
2023-05-21T21:27:47.485Z,101536.34
2023-05-21T21:30:14.013Z,101534.09
2023-05-21T21:32:41.143Z,101526.59
2023-05-21T21:35:07.968Z,101532.28
2023-05-21T21:37:34.577Z,101537.81
2023-05-21T21:40:01.021Z,101534.81
2023-05-21T21:42:27.517Z,101529.00
2023-05-21T21:44:54.236Z,101525.88
2023-05-21T21:47:20.729Z,101527.38
2023-05-21T21:49:48.064Z,101519.66
2023-05-21T21:52:14.939Z,101531.22
2023-05-21T21:54:41.625Z,101532.78
2023-05-21T21:57:08.193Z,101525.72
2023-05-21T21:59:37.916Z,101518.09
2023-05-21T22:02:04.453Z,101526.47
2023-05-21T22:04:30.906Z,101512.53
2023-05-21T22:06:57.397Z,101525.09
2023-05-21T22:09:23.877Z,101516.47
2023-05-21T22:11:50.810Z,101513.16
2023-05-21T22:14:18.177Z,101518.22
2023-05-21T22:16:45.244Z,101509.81
2023-05-21T22:19:12.904Z,101504.81
2023-05-21T22:21:39.438Z,101505.69
2023-05-21T22:24:06.198Z,101506.31
2023-05-21T22:26:32.958Z,101499.47
2023-05-21T22:28:59.927Z,101506.75
2023-05-21T22:31:26.833Z,101496.75
2023-05-21T22:33:53.300Z,101499.88
2023-05-21T22:36:19.733Z,101503.63
2023-05-21T22:38:46.368Z,101504.38
2023-05-21T22:41:12.989Z,101499.91
2023-05-21T22:43:39.479Z,101507.41
2023-05-21T22:46:06.030Z,101495.13
2023-05-21T22:48:34.415Z,101506.06
2023-05-21T22:51:01.664Z,101497.56
2023-05-21T22:53:28.309Z,101500.69
2023-05-21T22:55:54.746Z,101508.44
2023-05-21T22:58:21.251Z,101506.13
2023-05-21T23:00:48.066Z,101500.75
2023-05-21T23:03:14.656Z,101506.06
2023-05-21T23:05:41.345Z,101505.63
2023-05-21T23:08:07.921Z,101502.47
2023-05-21T23:10:35.418Z,101495.38
2023-05-21T23:13:01.957Z,101505.19
2023-05-21T23:15:29.768Z,101499.16
2023-05-21T23:17:57.001Z,101505.41
2023-05-21T23:20:24.876Z,101502.66
2023-05-21T23:22:51.914Z,101504.56
2023-05-21T23:25:18.408Z,101504.22
2023-05-21T23:27:44.994Z,101502.56
2023-05-21T23:30:12.042Z,101498.47
2023-05-21T23:32:39.006Z,101494.25
2023-05-21T23:35:05.952Z,101489.47
2023-05-21T23:37:32.402Z,101493.59
2023-05-21T23:39:58.856Z,101494.81
2023-05-21T23:42:25.296Z,101501.13
2023-05-21T23:44:51.974Z,101490.38
2023-05-21T23:47:18.411Z,101487.38
2023-05-21T23:49:44.860Z,101481.72
2023-05-21T23:52:13.433Z,101487.09
2023-05-21T23:54:39.885Z,101490.63
2023-05-21T23:57:06.334Z,101485.25
2023-05-21T23:59:32.812Z,101489.88
